Time;durP1;ratioP1;P1;durP2;ratioP2;P2;SDS_P1;SDS_P2;PMS_P1;PMS_P2;Temp;Humidity;BMP_temperature;BMP_pressure;BME280_temperature;BME280_humidity;BME280_pressure;Samples;Min_cycle;Max_cycle;Signal;HPM_P1;HPM_P2
2023/04/08 00:00:12;;;;;;;0.50;0.50;;;;;;;4.90;51.42;101837.31;5045830;28;20021;-62
2023/04/08 00:02:38;;;;;;;0.50;0.50;;;;;;;4.89;51.52;101835.53;5045752;28;20021;-62
2023/04/08 00:05:03;;;;;;;0.40;0.40;;;;;;;4.88;51.58;101833.78;5045726;28;20093;-63
2023/04/08 00:07:29;;;;;;;0.40;0.40;;;;;;;4.89;51.70;101835.53;5045809;28;20026;-63
2023/04/08 00:09:55;;;;;;;0.50;0.50;;;;;;;4.95;51.54;101830.59;5045458;28;20065;-63
2023/04/08 00:12:21;;;;;;;0.40;0.40;;;;;;;4.80;51.85;101819.75;5045705;28;20026;-63
2023/04/08 00:14:46;;;;;;;0.47;0.47;;;;;;;4.89;51.91;101825.22;5045410;28;20044;-63
2023/04/08 00:17:11;;;;;;;0.50;0.50;;;;;;;4.88;52.04;101823.47;5045102;28;20056;-63
2023/04/08 00:19:37;;;;;;;0.50;0.50;;;;;;;4.84;52.08;101819.91;5045417;28;20025;-64
2023/04/08 00:22:02;;;;;;;0.50;0.50;;;;;;;4.78;52.18;101811.06;5045491;28;20113;-63
2023/04/08 00:24:28;;;;;;;0.50;0.50;;;;;;;4.79;52.35;101812.84;5045487;28;20033;-63
2023/04/08 00:26:53;;;;;;;0.50;0.50;;;;;;;4.84;52.29;101819.91;5045410;28;20030;-63
2023/04/08 00:29:19;;;;;;;0.50;0.50;;;;;;;4.84;52.48;101821.59;5045265;28;20026;-62
2023/04/08 00:31:44;;;;;;;0.68;0.68;;;;;;;4.84;52.71;101829.31;5045190;28;20022;-62
2023/04/08 00:34:10;;;;;;;0.50;0.50;;;;;;;4.82;52.78;101821.53;5045347;28;20021;-64
2023/04/08 00:36:35;;;;;;;0.50;0.50;;;;;;;4.80;52.94;101817.16;5045087;28;20036;-62
2023/04/08 00:39:03;;;;;;;0.50;0.50;;;;;;;4.81;52.94;101826.63;5045378;28;20026;-63
2023/04/08 00:41:28;;;;;;;0.50;0.50;;;;;;;4.81;52.97;101826.63;5045371;28;20045;-63
2023/04/08 00:43:54;;;;;;;0.50;0.50;;;;;;;4.78;53.11;101814.53;5045049;28;20038;-63
2023/04/08 00:46:20;;;;;;;0.50;0.50;;;;;;;4.78;53.18;101816.22;5045051;28;20269;-62
2023/04/08 00:48:46;;;;;;;0.50;0.50;;;;;;;4.81;53.13;101816.34;5044926;28;20040;-63
2023/04/08 00:51:12;;;;;;;0.50;0.50;;;;;;;4.79;53.38;101820.56;5045009;28;20022;-63
2023/04/08 00:53:37;;;;;;;0.50;0.50;;;;;;;4.76;53.39;101820.44;5044946;28;20026;-63
2023/04/08 00:56:03;;;;;;;0.40;0.40;;;;;;;4.76;53.40;101820.44;5044901;28;20137;-62
2023/04/08 00:58:29;;;;;;;0.50;0.50;;;;;;;4.76;53.40;101820.44;5044978;28;20087;-63
2023/04/08 01:01:02;;;;;;;0.50;0.50;;;;;;;4.77;53.40;101820.50;5044978;28;20033;-63
2023/04/08 01:03:27;;;;;;;0.50;0.50;;;;;;;4.76;53.35;101820.44;5045024;28;20037;-62
2023/04/08 01:06:05;;;;;;;0.50;0.50;;;;;;;4.77;53.50;101822.19;5044637;28;20021;-63
2023/04/08 01:08:33;;;;;;;0.50;0.50;;;;;;;4.75;53.51;101828.97;5044823;28;20036;-62
2023/04/08 01:11:02;;;;;;;0.50;0.50;;;;;;;4.75;53.56;101827.28;5027445;28;20445;-61
2023/04/08 01:13:33;;;;;;;0.40;0.40;;;;;;;4.76;53.55;101823.88;5044868;28;20025;-62
2023/04/08 01:15:58;;;;;;;0.50;0.50;;;;;;;4.75;53.51;101821.25;5026933;28;20040;-62
2023/04/08 01:18:25;;;;;;;0.50;0.50;;;;;;;4.73;53.58;101825.47;5044689;28;20030;-63
2023/04/08 01:20:53;;;;;;;0.45;0.45;;;;;;;4.64;53.62;101818.25;5044625;28;20025;-62
2023/04/08 01:23:46;;;;;;;0.50;0.50;;;;;;;4.69;53.66;101830.50;5044669;28;20032;-63
2023/04/08 01:26:20;;;;;;;0.50;0.50;;;;;;;4.68;53.72;101831.31;5044689;28;20052;-63
2023/04/08 01:28:48;;;;;;;0.50;0.50;;;;;;;4.66;53.81;101826.94;5048690;28;20048;-63
2023/04/08 01:31:14;;;;;;;0.45;0.45;;;;;;;4.64;53.82;101834.59;5048602;28;20033;-63
2023/04/08 01:33:41;;;;;;;0.40;0.40;;;;;;;4.63;53.75;101831.94;5048708;28;20049;-65
2023/04/08 01:36:08;;;;;;;0.50;0.50;;;;;;;4.62;53.89;101828.50;5048605;28;20040;-63
2023/04/08 01:38:34;;;;;;;0.50;0.50;;;;;;;4.61;54.01;101826.75;5048620;28;20021;-63
2023/04/08 01:41:00;;;;;;;0.50;0.50;;;;;;;4.61;54.11;101831.00;5048454;28;20108;-63
2023/04/08 01:43:26;;;;;;;0.50;0.50;;;;;;;4.58;54.15;101834.34;5048020;28;20038;-63
2023/04/08 01:45:56;;;;;;;0.50;0.50;;;;;;;4.58;54.22;101836.91;5048380;28;20030;-63
2023/04/08 01:48:23;;;;;;;0.50;0.50;;;;;;;4.63;54.25;101842.25;5048289;28;20026;-62
2023/04/08 01:50:50;;;;;;;0.47;0.47;;;;;;;4.58;54.23;101839.50;5048129;28;20107;-64
2023/04/08 01:53:16;;;;;;;0.50;0.50;;;;;;;4.60;54.22;101840.41;5048461;28;20020;-63
2023/04/08 01:55:42;;;;;;;0.50;0.50;;;;;;;4.58;54.44;101839.50;5048203;28;20025;-62
2023/04/08 01:58:11;;;;;;;0.50;0.50;;;;;;;4.57;54.58;101843.75;5048310;28;20029;-62
2023/04/08 02:00:39;;;;;;;0.50;0.50;;;;;;;4.57;54.47;101837.72;5048307;28;20033;-63
2023/04/08 02:03:06;;;;;;;0.50;0.50;;;;;;;4.56;54.68;101842.00;5048146;28;20025;-63
2023/04/08 02:05:32;;;;;;;0.40;0.40;;;;;;;4.53;54.68;101835.84;5047978;28;20043;-64
2023/04/08 02:07:57;;;;;;;0.50;0.50;;;;;;;4.54;54.72;101838.47;5048009;28;20021;-63
2023/04/08 02:10:23;;;;;;;0.50;0.50;;;;;;;4.58;54.73;101840.34;5048122;28;20095;-62
2023/04/08 02:12:48;;;;;;;0.50;0.50;;;;;;;4.56;54.92;101844.56;5047936;28;20073;-63
2023/04/08 02:15:14;;;;;;;0.50;0.50;;;;;;;4.52;54.92;101839.25;5047901;28;20400;-63
2023/04/08 02:17:52;;;;;;;0.50;0.50;;;;;;;4.56;54.93;101853.97;5047947;28;20032;-63
2023/04/08 02:20:30;;;;;;;0.50;0.50;;;;;;;4.58;54.90;101857.50;5047515;28;20503;-63
2023/04/08 02:23:17;;;;;;;0.50;0.50;;;;;;;4.60;54.89;101863.56;5047942;28;20079;-63
2023/04/08 02:25:45;;;;;;;0.50;0.50;;;;;;;4.56;54.78;101862.56;5047779;28;20032;-63
2023/04/08 02:28:11;;;;;;;0.50;0.50;;;;;;;4.57;54.99;101863.44;5047623;28;20017;-63
2023/04/08 02:30:41;;;;;;;0.50;0.50;;;;;;;4.59;55.08;101862.69;5047592;28;20040;-64
2023/04/08 02:33:08;;;;;;;0.50;0.50;;;;;;;4.58;54.89;101862.63;5047584;28;20028;-64
2023/04/08 02:35:34;;;;;;;0.50;0.50;;;;;;;4.57;54.96;101864.31;5047348;28;20121;-63
2023/04/08 02:38:00;;;;;;;0.50;0.50;;;;;;;4.62;54.99;101863.66;5047073;28;20049;-63
2023/04/08 02:40:30;;;;;;;0.50;0.50;;;;;;;4.63;55.11;101863.72;5046890;28;20061;-63
2023/04/08 02:42:57;;;;;;;0.50;0.50;;;;;;;4.62;55.03;101866.22;5047194;28;20059;-62
2023/04/08 02:45:26;;;;;;;0.50;0.50;;;;;;;4.60;54.90;101868.69;5047313;28;20128;-62
2023/04/08 02:47:51;;;;;;;0.50;0.50;;;;;;;4.61;55.02;101867.91;5047286;28;20033;-63
2023/04/08 02:50:17;;;;;;;0.50;0.50;;;;;;;4.63;55.05;101876.56;5029319;28;20021;-63
2023/04/08 02:52:43;;;;;;;0.40;0.40;;;;;;;4.62;55.07;101879.09;5047219;28;20087;-63
2023/04/08 02:55:09;;;;;;;2.85;2.25;;;;;;;4.63;55.09;101879.16;5047236;28;20468;-63
2023/04/08 02:57:39;;;;;;;0.50;0.50;;;;;;;4.64;55.08;101874.84;5047030;28;20085;-64
2023/04/08 03:00:06;;;;;;;0.50;0.50;;;;;;;4.62;55.19;101877.38;5047237;28;20104;-63
2023/04/08 03:02:32;;;;;;;0.50;0.50;;;;;;;4.66;55.20;101878.38;5047193;28;20021;-63
2023/04/08 03:04:57;;;;;;;0.50;0.50;;;;;;;4.65;55.17;101886.94;5046864;28;20108;-63
2023/04/08 03:07:23;;;;;;;0.50;0.50;;;;;;;4.64;55.18;101882.56;5046961;28;20037;-62
2023/04/08 03:09:48;;;;;;;1.30;1.23;;;;;;;4.62;55.07;101887.66;5046837;28;20029;-62
2023/04/08 03:12:13;;;;;;;0.50;0.50;;;;;;;4.66;55.32;101886.97;5046828;28;20032;-64
2023/04/08 03:14:39;;;;;;;0.50;0.50;;;;;;;4.57;55.32;101869.47;5046701;28;20126;-63
2023/04/08 03:17:04;;;;;;;0.50;0.50;;;;;;;4.64;55.48;101893.75;5046794;28;20028;-63
2023/04/08 03:19:30;;;;;;;0.50;0.50;;;;;;;4.65;55.49;101894.63;5046607;28;20036;-63
2023/04/08 03:21:55;;;;;;;0.50;0.50;;;;;;;4.65;55.46;101892.94;5046379;28;20030;-63
2023/04/08 03:24:20;;;;;;;0.50;0.50;;;;;;;4.63;55.48;101896.25;5046389;28;20031;-63
2023/04/08 03:26:46;;;;;;;0.50;0.50;;;;;;;4.66;55.62;101889.56;5046717;28;20033;-63
2023/04/08 03:29:11;;;;;;;0.50;0.50;;;;;;;4.68;55.66;101897.34;5046250;28;20025;-62
2023/04/08 03:31:37;;;;;;;0.50;0.50;;;;;;;4.69;55.81;101899.97;5046378;28;20049;-63
2023/04/08 03:34:02;;;;;;;0.50;0.50;;;;;;;4.67;55.85;101891.31;5046346;28;20096;-63
2023/04/08 03:36:28;;;;;;;0.50;0.50;;;;;;;4.68;55.98;101898.19;5046148;28;20041;-62
2023/04/08 03:38:53;;;;;;;0.43;0.43;;;;;;;4.67;56.11;101896.44;5046189;28;20061;-61
2023/04/08 03:41:19;;;;;;;0.50;0.50;;;;;;;4.69;56.06;101894.81;5046467;28;20029;-63
2023/04/08 03:43:45;;;;;;;0.50;0.50;;;;;;;4.68;56.10;101894.75;5046037;28;20049;-63
2023/04/08 03:46:10;;;;;;;0.50;0.50;;;;;;;4.65;56.21;101892.94;5046081;28;20049;-63
2023/04/08 03:48:36;;;;;;;0.50;0.50;;;;;;;4.66;56.28;101902.41;5046109;28;20021;-62
2023/04/08 03:51:01;;;;;;;0.50;0.50;;;;;;;4.64;56.36;101906.63;5045029;28;20100;-62
2023/04/08 03:53:28;;;;;;;0.60;0.60;;;;;;;4.65;56.42;101907.50;5045929;28;20056;-63
2023/04/08 03:55:54;;;;;;;0.50;0.50;;;;;;;4.59;56.63;101898.72;5046083;28;20029;-63
2023/04/08 03:58:20;;;;;;;0.50;0.50;;;;;;;4.61;56.68;101901.34;5045777;28;20021;-63
2023/04/08 04:00:45;;;;;;;0.50;0.50;;;;;;;4.61;56.74;101915.91;5045802;28;20029;-63
2023/04/08 04:03:11;;;;;;;0.55;0.55;;;;;;;4.62;56.91;101904.81;5045706;28;20100;-63
2023/04/08 04:05:37;;;;;;;0.50;0.50;;;;;;;4.65;56.98;101915.22;5027840;28;20025;-63
2023/04/08 04:08:03;;;;;;;0.50;0.50;;;;;;;4.65;56.96;101916.06;5045742;28;20021;-63
2023/04/08 04:10:29;;;;;;;0.50;0.50;;;;;;;4.61;57.17;101915.91;5045631;28;20021;-63
2023/04/08 04:12:54;;;;;;;0.50;0.50;;;;;;;4.63;57.29;101919.41;5027946;28;20028;-63
2023/04/08 04:15:20;;;;;;;0.50;0.50;;;;;;;4.65;57.31;101921.22;5045713;28;20461;-63
2023/04/08 04:17:47;;;;;;;0.50;0.50;;;;;;;4.63;57.38;101922.00;5045635;28;20025;-63
2023/04/08 04:20:13;;;;;;;0.50;0.50;;;;;;;4.64;57.46;101916.91;5045232;28;20036;-63
2023/04/08 04:22:39;;;;;;;0.50;0.50;;;;;;;4.65;57.67;101923.78;5045420;28;20021;-62
2023/04/08 04:25:04;;;;;;;0.55;0.55;;;;;;;4.63;57.63;101917.72;5045613;28;20026;-63
2023/04/08 04:27:30;;;;;;;0.50;0.50;;;;;;;4.59;57.71;101923.53;5045547;28;20371;-62
2023/04/08 04:29:55;;;;;;;0.50;0.50;;;;;;;4.57;57.91;101914.88;5027447;28;20097;-63
2023/04/08 04:32:21;;;;;;;0.43;0.43;;;;;;;4.56;58.05;101913.13;5045213;28;20052;-63
2023/04/08 04:34:46;;;;;;;0.50;0.50;;;;;;;4.59;57.99;101911.56;5044966;28;20033;-62
2023/04/08 04:37:12;;;;;;;0.50;0.50;;;;;;;4.59;58.02;101919.28;5027530;28;20026;-63
2023/04/08 04:39:37;;;;;;;0.50;0.50;;;;;;;4.65;58.26;101926.38;5045231;28;20024;-63
2023/04/08 04:42:03;;;;;;;0.47;0.47;;;;;;;4.58;58.06;101925.22;5044995;28;20022;-63
2023/04/08 04:44:29;;;;;;;0.50;0.50;;;;;;;4.57;58.36;101936.34;5045326;28;20022;-63
2023/04/08 04:46:54;;;;;;;0.40;0.40;;;;;;;4.56;58.33;101939.75;5045193;28;20022;-63
2023/04/08 04:49:20;;;;;;;0.50;0.50;;;;;;;4.57;58.42;101928.63;5045186;28;20063;-63
2023/04/08 04:51:46;;;;;;;0.47;0.47;;;;;;;4.56;58.43;101926.88;5044850;28;20021;-63
2023/04/08 04:54:11;;;;;;;0.40;0.40;;;;;;;4.56;58.41;101933.72;5045304;28;20017;-63
2023/04/08 04:56:37;;;;;;;0.50;0.50;;;;;;;4.55;58.51;101932.81;5044869;28;20029;-63
2023/04/08 04:59:04;;;;;;;0.47;0.47;;;;;;;4.58;58.54;101942.38;5044873;28;20090;-63
2023/04/08 05:01:29;;;;;;;0.50;0.50;;;;;;;4.56;58.54;101939.75;5044607;28;20034;-63
2023/04/08 05:03:55;;;;;;;0.50;0.50;;;;;;;4.57;58.69;101941.50;5044924;28;20053;-62
2023/04/08 05:06:22;;;;;;;0.50;0.50;;;;;;;4.58;58.70;101947.53;5044394;28;20022;-63
2023/04/08 05:08:48;;;;;;;0.60;0.60;;;;;;;4.54;58.70;101961.06;5044726;28;20035;-62
2023/04/08 05:11:13;;;;;;;0.50;0.50;;;;;;;4.52;58.88;101937.84;5044783;28;20045;-62
2023/04/08 05:13:39;;;;;;;0.50;0.50;;;;;;;4.57;58.93;101944.06;5044890;28;20022;-63
2023/04/08 05:16:05;;;;;;;0.50;0.50;;;;;;;4.56;58.88;101938.84;5044869;28;20081;-62
2023/04/08 05:18:30;;;;;;;0.45;0.45;;;;;;;4.56;58.92;101952.59;5044453;28;20079;-62
2023/04/08 05:20:56;;;;;;;0.43;0.43;;;;;;;4.61;58.93;101946.75;5044634;28;20032;-63
2023/04/08 05:23:21;;;;;;;0.50;0.50;;;;;;;4.59;58.96;101954.41;5026903;28;20021;-63
2023/04/08 05:25:46;;;;;;;0.50;0.50;;;;;;;4.58;58.87;101947.53;5044648;28;20017;-63
2023/04/08 05:28:12;;;;;;;0.50;0.50;;;;;;;4.62;59.28;101946.81;5044519;28;20021;-64
2023/04/08 05:30:37;;;;;;;0.50;0.50;;;;;;;4.55;59.37;101953.41;5026618;28;20033;-63
2023/04/08 05:33:03;;;;;;;0.50;0.50;;;;;;;4.67;59.41;101953.03;5044654;28;20047;-63
2023/04/08 05:35:28;;;;;;;0.40;0.40;;;;;;;4.68;59.54;101943.66;5044404;28;20041;-64
2023/04/08 05:37:53;;;;;;;0.47;0.47;;;;;;;4.65;59.71;101948.66;5044648;28;20029;-63
2023/04/08 05:40:19;;;;;;;0.43;0.43;;;;;;;4.62;59.83;101940.81;5044451;28;20041;-63
2023/04/08 05:42:45;;;;;;;0.50;0.50;;;;;;;4.66;59.95;101945.25;5044332;28;20045;-63
2023/04/08 05:45:10;;;;;;;0.50;0.50;;;;;;;4.66;59.99;101946.16;5026716;28;20026;-63
2023/04/08 05:47:36;;;;;;;0.50;0.50;;;;;;;4.79;60.10;101951.78;5044466;28;20081;-63
2023/04/08 05:50:01;;;;;;;0.50;0.50;;;;;;;4.74;60.20;101953.28;5026478;28;20207;-64
2023/04/08 05:52:26;;;;;;;0.55;0.55;;;;;;;4.76;60.33;101954.25;5044415;28;20380;-62
2023/04/08 05:54:52;;;;;;;0.50;0.50;;;;;;;4.84;60.31;101955.41;5044495;28;20101;-63
2023/04/08 05:57:18;;;;;;;0.50;0.50;;;;;;;4.89;60.24;101959.06;5044479;28;20029;-63
2023/04/08 05:59:43;;;;;;;0.50;0.50;;;;;;;4.90;60.49;101957.38;5044340;28;20057;-63
2023/04/08 06:02:09;;;;;;;0.50;0.50;;;;;;;4.86;60.62;101968.38;5044154;28;20055;-62
2023/04/08 06:04:34;;;;;;;0.50;0.50;;;;;;;4.91;60.58;101970.31;5044425;28;20026;-63
2023/04/08 06:07:01;;;;;;;0.45;0.45;;;;;;;4.95;60.68;101964.44;5044137;28;20111;-62
2023/04/08 06:09:27;;;;;;;0.60;0.60;;;;;;;4.90;60.69;101968.56;5044325;28;20025;-63
2023/04/08 06:11:52;;;;;;;0.50;0.50;;;;;;;5.00;60.64;101963.78;5044345;28;20029;-63
2023/04/08 06:14:19;;;;;;;0.70;0.70;;;;;;;4.99;60.63;101965.47;5045765;28;20072;-62
2023/04/08 06:16:44;;;;;;;0.50;0.50;;;;;;;5.00;60.76;101971.50;5048007;28;20376;-63
2023/04/08 06:19:10;;;;;;;0.50;0.50;;;;;;;5.04;60.72;101973.34;5047759;28;20212;-63
2023/04/08 06:21:35;;;;;;;0.50;0.50;;;;;;;5.06;61.08;101982.03;5047585;28;20041;-61
2023/04/08 06:24:00;;;;;;;0.50;0.50;;;;;;;5.11;60.96;101983.09;5047707;28;20026;-63
2023/04/08 06:26:26;;;;;;;2.28;2.15;;;;;;;5.13;61.09;101983.16;5047562;28;20048;-66
2023/04/08 06:28:52;;;;;;;0.40;0.40;;;;;;;5.15;60.91;101972.09;5047560;28;20083;-66
2023/04/08 06:31:17;;;;;;;0.50;0.50;;;;;;;5.23;61.04;101974.97;5047760;28;20379;-65
2023/04/08 06:33:43;;;;;;;0.50;0.50;;;;;;;5.23;61.11;101979.22;5047430;28;20056;-65
2023/04/08 06:36:08;;;;;;;0.50;0.50;;;;;;;5.38;60.94;101982.44;5047340;28;20048;-65
2023/04/08 06:38:34;;;;;;;0.50;0.50;;;;;;;5.37;61.04;101987.53;5047671;28;20032;-65
2023/04/08 06:41:03;;;;;;;0.50;0.50;;;;;;;5.36;61.04;101986.63;5047336;28;20554;-65
2023/04/08 06:43:29;;;;;;;0.40;0.40;;;;;;;5.42;60.96;101986.88;5047071;28;20048;-66
2023/04/08 06:45:55;;;;;;;0.50;0.50;;;;;;;5.46;60.86;101988.72;5047352;28;20025;-67
2023/04/08 06:48:22;;;;;;;9.07;1.75;;;;;;;5.48;60.77;101991.34;5047295;28;20024;-63
2023/04/08 06:50:48;;;;;;;0.50;0.50;;;;;;;5.49;60.57;101998.28;5047161;28;20061;-63
2023/04/08 06:53:13;;;;;;;0.50;0.50;;;;;;;5.53;60.64;101999.25;5047455;28;20099;-63
2023/04/08 06:55:38;;;;;;;0.50;0.50;;;;;;;5.60;60.62;101993.53;5047157;28;20029;-62
2023/04/08 06:58:04;;;;;;;0.50;0.50;;;;;;;5.55;60.61;101998.53;5047308;28;20022;-62
2023/04/08 07:00:29;;;;;;;0.50;0.50;;;;;;;5.53;60.73;101994.09;5047051;28;20093;-63
2023/04/08 07:02:55;;;;;;;0.50;0.50;;;;;;;5.55;60.49;102008.81;5047150;28;20021;-63
2023/04/08 07:05:20;;;;;;;0.50;0.50;;;;;;;5.59;60.35;102004.69;5047183;28;20115;-62
2023/04/08 07:07:46;;;;;;;0.50;0.50;;;;;;;5.55;60.27;102006.25;5047076;28;20035;-63
2023/04/08 07:10:12;;;;;;;0.50;0.50;;;;;;;5.52;60.25;102006.13;5046960;28;20113;-62
2023/04/08 07:12:37;;;;;;;0.50;0.50;;;;;;;5.54;60.28;102011.34;5029062;28;20026;-62
2023/04/08 07:15:03;;;;;;;0.43;0.43;;;;;;;5.53;60.26;101997.56;5046883;28;20077;-63
2023/04/08 07:17:29;;;;;;;0.50;0.50;;;;;;;5.52;60.35;102003.56;5046745;28;20025;-61
2023/04/08 07:19:55;;;;;;;0.50;0.50;;;;;;;5.55;60.32;102002.78;5046447;28;20026;-62
2023/04/08 07:22:21;;;;;;;0.40;0.40;;;;;;;5.55;60.29;101995.06;5046613;28;20044;-62
2023/04/08 07:24:48;;;;;;;0.50;0.50;;;;;;;5.67;60.05;102002.38;5046614;28;20033;-62
2023/04/08 07:27:15;;;;;;;0.50;0.50;;;;;;;5.68;59.85;102007.59;5046419;28;20504;-62
2023/04/08 07:29:41;;;;;;;0.50;0.50;;;;;;;5.70;59.85;102005.09;5046496;28;20021;-62
2023/04/08 07:32:06;;;;;;;0.50;0.50;;;;;;;5.72;59.56;101997.41;5046518;28;20059;-62
2023/04/08 07:34:36;;;;;;;0.77;0.77;;;;;;;5.81;59.62;102008.06;5046554;28;20025;-68
2023/04/08 07:37:02;;;;;;;0.60;0.60;;;;;;;5.81;59.59;102008.91;5046349;28;20080;-63
2023/04/08 07:39:27;;;;;;;0.40;0.40;;;;;;;5.82;59.55;101996.91;5046288;28;20064;-63
2023/04/08 07:41:53;;;;;;;0.50;0.50;;;;;;;5.87;59.58;102013.44;5046095;28;20097;-63
2023/04/08 07:44:18;;;;;;;1.45;1.45;;;;;;;5.90;59.51;101995.50;5046194;28;20037;-62
2023/04/08 07:46:45;;;;;;;0.50;0.50;;;;;;;6.01;59.52;102002.72;5045918;28;20025;-63
2023/04/08 07:49:10;;;;;;;0.43;0.43;;;;;;;6.22;58.65;102012.09;5045999;28;20029;-62
2023/04/08 07:51:36;;;;;;;0.70;0.70;;;;;;;6.18;58.76;102000.81;5046110;28;20025;-63
2023/04/08 07:54:01;;;;;;;0.40;0.40;;;;;;;6.27;59.02;102008.00;5046237;28;20021;-63
2023/04/08 07:56:27;;;;;;;0.60;0.60;;;;;;;6.38;59.11;102009.25;5046183;28;20084;-63
2023/04/08 07:58:53;;;;;;;0.50;0.50;;;;;;;6.48;58.62;102005.28;5045800;28;20021;-62
2023/04/08 08:01:20;;;;;;;0.50;0.50;;;;;;;6.60;58.38;102009.97;5046001;28;20030;-62
2023/04/08 08:03:47;;;;;;;0.82;0.82;;;;;;;6.60;58.25;102004.81;5045910;28;20082;-61
2023/04/08 08:06:13;;;;;;;0.50;0.50;;;;;;;6.69;58.09;102010.28;5045891;28;20112;-63
2023/04/08 08:08:38;;;;;;;0.50;0.50;;;;;;;6.67;57.99;102017.13;5045932;28;20092;-63
2023/04/08 08:11:04;;;;;;;0.50;0.50;;;;;;;6.71;58.08;102005.19;5045804;28;20101;-64
2023/04/08 08:13:29;;;;;;;0.50;0.50;;;;;;;6.77;57.88;102007.09;5045576;28;20018;-64
2023/04/08 08:15:55;;;;;;;0.50;0.50;;;;;;;6.90;57.60;102004.09;5045862;28;20021;-63
2023/04/08 08:18:21;;;;;;;0.50;0.50;;;;;;;6.92;57.35;102007.59;5045833;28;20021;-63
2023/04/08 08:20:46;;;;;;;0.50;0.50;;;;;;;6.97;57.68;102009.44;5045474;28;20110;-63
2023/04/08 08:23:12;;;;;;;0.43;0.43;;;;;;;7.11;57.42;102012.50;5045413;28;20034;-63
2023/04/08 08:25:37;;;;;;;0.40;0.40;;;;;;;7.26;56.84;102025.00;5045556;28;20018;-62
2023/04/08 08:28:03;;;;;;;0.40;0.40;;;;;;;7.32;57.11;102025.19;5045585;28;20026;-62
2023/04/08 08:30:28;;;;;;;0.47;0.47;;;;;;;7.44;56.83;102027.31;5045327;28;20025;-62
2023/04/08 08:32:55;;;;;;;0.82;0.82;;;;;;;7.57;56.86;102026.81;5045529;28;20407;-63
2023/04/08 08:35:20;;;;;;;0.80;0.80;;;;;;;7.80;56.61;102037.00;5045009;28;20037;-63
2023/04/08 08:37:46;;;;;;;0.45;0.45;;;;;;;7.93;56.41;102033.06;5044873;28;20022;-64
2023/04/08 08:40:13;;;;;;;0.40;0.40;;;;;;;8.20;56.25;102038.97;5027443;28;20021;-64
2023/04/08 08:42:39;;;;;;;0.60;0.60;;;;;;;8.37;55.38;102044.59;5045133;28;20064;-63
2023/04/08 08:45:05;;;;;;;0.50;0.50;;;;;;;8.53;54.77;102037.25;5045084;28;20491;-63
2023/04/08 08:47:31;;;;;;;0.40;0.40;;;;;;;8.65;55.25;102036.72;5045100;28;20030;-63
2023/04/08 08:49:57;;;;;;;0.45;0.45;;;;;;;8.85;54.72;102039.81;5044815;28;20025;-62
2023/04/08 08:52:22;;;;;;;1.00;0.88;;;;;;;9.10;53.50;102042.13;5044868;28;20040;-62
2023/04/08 08:54:55;;;;;;;0.40;0.40;;;;;;;9.10;52.53;102042.13;5045298;28;20036;-63
2023/04/08 08:57:20;;;;;;;0.40;0.40;;;;;;;9.09;52.64;102038.66;5045181;28;20030;-64
2023/04/08 08:59:46;;;;;;;0.40;0.40;;;;;;;9.24;52.13;102043.34;5044844;28;20022;-62
2023/04/08 09:02:29;;;;;;;0.40;0.40;;;;;;;9.20;51.93;102040.66;5045033;28;20496;-63
2023/04/08 09:05:02;;;;;;;4.40;3.80;;;;;;;9.20;51.59;102044.09;5045173;28;20033;-62
2023/04/08 09:07:29;;;;;;;0.40;0.40;;;;;;;9.45;51.48;102041.22;5044833;28;20392;-63
2023/04/08 09:09:56;;;;;;;0.40;0.40;;;;;;;9.56;50.56;102039.75;5044797;28;20021;-62
2023/04/08 09:12:23;;;;;;;0.40;0.40;;;;;;;9.64;50.35;102048.56;5044786;28;20108;-63
2023/04/08 09:14:48;;;;;;;0.50;0.50;;;;;;;9.63;49.82;102039.03;5044960;28;20024;-62
2023/04/08 09:17:15;;;;;;;0.40;0.40;;;;;;;9.70;50.49;102036.56;5044974;28;20085;-62
2023/04/08 09:20:18;;;;;;;0.40;0.40;;;;;;;10.35;50.09;102048.25;5044722;28;20032;-62
2023/04/08 09:22:52;;;;;;;0.40;0.40;;;;;;;11.25;48.52;102041.13;5044847;28;20032;-62
2023/04/08 09:25:32;;;;;;;0.40;0.40;;;;;;;11.88;46.03;102037.66;5044606;28;20072;-63
2023/04/08 09:27:58;;;;;;;0.40;0.40;;;;;;;12.02;46.01;102032.63;5044722;28;20029;-64
2023/04/08 09:30:24;;;;;;;0.40;0.40;;;;;;;12.40;44.70;102030.44;5044653;28;20086;-63
2023/04/08 09:32:55;;;;;;;0.40;0.40;;;;;;;12.39;44.46;102033.91;5044552;28;20029;-62
2023/04/08 09:35:21;;;;;;;0.40;0.40;;;;;;;12.74;44.56;102033.38;5044631;28;20121;-62
2023/04/08 09:37:48;;;;;;;0.40;0.40;;;;;;;12.97;43.83;102026.59;5044662;28;20026;-62
2023/04/08 09:40:16;;;;;;;0.40;0.40;;;;;;;13.14;44.13;102014.56;5044562;28;20021;-62
2023/04/08 09:42:51;;;;;;;0.38;0.38;;;;;;;13.71;42.81;102025.31;5044510;28;20069;-62
2023/04/08 09:45:17;;;;;;;0.40;0.40;;;;;;;13.59;42.12;102032.25;5044310;28;20032;-62
2023/04/08 09:48:17;;;;;;;0.40;0.40;;;;;;;13.36;42.69;102019.03;5044578;28;20460;-63
2023/04/08 09:50:48;;;;;;;1.25;1.15;;;;;;;13.41;41.98;102032.97;5048388;28;20026;-62
2023/04/08 09:53:25;;;;;;;0.40;0.40;;;;;;;13.25;42.59;102026.78;5048493;28;20022;-62
2023/04/08 09:55:54;;;;;;;0.40;0.40;;;;;;;13.38;42.96;102033.84;5048544;28;20025;-63
2023/04/08 09:58:27;;;;;;;0.93;0.93;;;;;;;13.51;42.80;102031.34;5048288;28;20052;-62
2023/04/08 10:00:53;;;;;;;0.40;0.40;;;;;;;13.77;42.57;102029.72;5048261;28;20056;-64
2023/04/08 10:03:38;;;;;;;0.30;0.30;;;;;;;13.73;42.07;102028.81;5048036;28;20045;-66
2023/04/08 10:06:07;;;;;;;0.40;0.40;;;;;;;13.85;42.07;102026.25;5047938;28;20033;-64
2023/04/08 10:08:33;;;;;;;0.38;0.38;;;;;;;14.02;41.81;102019.34;5048193;28;20032;-64
2023/04/08 10:10:59;;;;;;;0.30;0.30;;;;;;;14.32;41.35;102012.47;5048072;28;20021;-63
2023/04/08 10:13:27;;;;;;;0.40;0.40;;;;;;;14.82;40.84;102012.53;5030238;28;20029;-62
2023/04/08 10:16:26;;;;;;;0.35;0.35;;;;;;;15.11;39.68;102014.25;5047940;28;20022;-63
2023/04/08 10:18:55;;;;;;;0.25;0.25;;;;;;;15.28;40.51;102014.22;5047949;28;20469;-62
2023/04/08 10:21:47;;;;;;;0.30;0.30;;;;;;;15.85;39.18;102007.00;5047605;28;20029;-63
2023/04/08 10:24:12;;;;;;;;;;;;;;;16.00;38.52;102011.34;5048246;28;20110;-63
2023/04/08 10:26:39;;;;;;;;;;;;;;;16.29;38.64;102007.69;5048136;28;20387;-62
2023/04/08 10:29:25;;;;;;;;;;;;;;;16.47;37.62;102003.16;5048333;28;19913;-63
2023/04/08 10:31:50;;;;;;;;;;;;;;;16.81;37.65;102008.16;5020087;28;19909;-63
2023/04/08 10:34:16;;;;;;;;;;;;;;;17.18;36.93;102000.84;5048016;28;19916;-63
2023/04/08 10:36:42;;;;;;;;;;;;;;;17.41;37.25;102005.81;5047932;28;19932;-62
2023/04/08 10:39:07;;;;;;;;;;;;;;;17.37;36.00;102009.38;5047714;28;19909;-63
2023/04/08 10:41:32;;;;;;;;;;;;;;;17.13;36.57;101995.63;5047890;28;19932;-62
2023/04/08 10:43:58;;;;;;;;;;;;;;;17.28;36.63;102005.13;5026415;28;19917;-63
2023/04/08 10:46:26;;;;;;;;;;;;;;;17.51;36.13;101997.84;5027896;28;19913;-63
2023/04/08 10:49:00;;;;;;;;;;;;;;;17.49;34.95;101992.63;5028157;28;19960;-62
2023/04/08 10:51:30;;;;;;;;;;;;;;;16.99;35.38;101993.13;5027681;28;20278;-63
2023/04/08 10:54:04;;;;;;;;;;;;;;;16.75;35.57;101981.97;5027912;28;19977;-63
2023/04/08 10:56:29;;;;;;;;;;;;;;;16.63;36.16;101990.81;5027861;28;19913;-62
2023/04/08 10:58:58;;;;;;;;;;;;;;;16.70;36.61;101970.66;5027700;28;20388;-64
2023/04/08 11:01:23;;;;;;;;;;;;;;;16.76;36.38;101986.34;5027133;28;19921;-63
2023/04/08 11:03:49;;;;;;;;;;;;;;;17.04;36.32;101983.47;5027834;28;19913;-62
2023/04/08 11:06:14;;;;;;;;;;;;;;;17.19;35.42;101984.19;5027417;28;20379;-63
2023/04/08 11:08:40;;;;;;;;;;;;;;;17.18;35.04;101985.09;5027421;28;20309;-63
2023/04/08 11:11:09;;;;;;;;;;;;;;;17.19;34.99;101981.56;5027521;28;19909;-64
2023/04/08 11:13:36;;;;;;;;;;;;;;;17.38;35.24;101987.47;5026037;28;19913;-64
2023/04/08 11:16:03;;;;;;;;;;;;;;;17.67;34.32;101969.63;5027256;28;19917;-63
2023/04/08 11:18:30;;;;;;;;;;;;;;;17.64;33.86;101975.78;5025871;28;19932;-63
2023/04/08 11:20:56;;;;;;;;;;;;;;;17.78;34.18;101978.22;5026996;28;19909;-62
2023/04/08 11:23:23;;;;;;;;;;;;;;;18.06;34.44;101975.22;5027391;28;19972;-63
2023/04/08 11:25:49;;;;;;;;;;;;;;;18.14;34.52;101963.75;5027230;28;19909;-62
2023/04/08 11:28:15;;;;;;;;;;;;;;;17.67;34.59;101980.13;5027222;28;19919;-63
2023/04/08 11:30:41;;;;;;;;;;;;;;;16.55;35.43;101975.16;5027060;28;19910;-62
2023/04/08 11:33:07;;;;;;;;;;;;;;;15.61;37.06;101972.22;5027394;28;19960;-62
2023/04/08 11:35:32;;;;;;;;;;;;;;;15.08;38.00;101965.41;5026753;28;19992;-61
2023/04/08 11:37:58;;;;;;;;;;;;;;;14.54;39.22;101979.38;5026952;28;20475;-62